sensor_id;sensor_type;location;lat;lon;timestamp;P1;durP1;ratioP1;P2;durP2;ratioP2
13408;SDS011;6775;49.574;11.170;2023-09-12T00:02:14;12.00;;;10.80;;
13408;SDS011;6775;49.574;11.170;2023-09-12T00:04:42;12.77;;;11.47;;
13408;SDS011;6775;49.574;11.170;2023-09-12T00:07:10;12.90;;;11.50;;
13408;SDS011;6775;49.574;11.170;2023-09-12T00:09:38;15.17;;;13.57;;
13408;SDS011;6775;49.574;11.170;2023-09-12T00:12:06;14.87;;;13.23;;
13408;SDS011;6775;49.574;11.170;2023-09-12T00:14:35;13.90;;;12.33;;
13408;SDS011;6775;49.574;11.170;2023-09-12T00:17:03;14.13;;;12.47;;
13408;SDS011;6775;49.574;11.170;2023-09-12T00:19:32;15.57;;;13.90;;
13408;SDS011;6775;49.574;11.170;2023-09-12T00:22:01;13.50;;;12.10;;
13408;SDS011;6775;49.574;11.170;2023-09-12T00:24:29;13.47;;;12.17;;
13408;SDS011;6775;49.574;11.170;2023-09-12T00:26:58;14.40;;;12.23;;
13408;SDS011;6775;49.574;11.170;2023-09-12T00:29:26;12.43;;;11.20;;
13408;SDS011;6775;49.574;11.170;2023-09-12T00:31:54;11.33;;;10.13;;
13408;SDS011;6775;49.574;11.170;2023-09-12T00:34:22;12.23;;;11.03;;
13408;SDS011;6775;49.574;11.170;2023-09-12T00:36:51;11.87;;;10.70;;
13408;SDS011;6775;49.574;11.170;2023-09-12T00:39:19;11.57;;;10.47;;
13408;SDS011;6775;49.574;11.170;2023-09-12T00:41:47;11.57;;;10.43;;
13408;SDS011;6775;49.574;11.170;2023-09-12T00:44:15;11.77;;;10.57;;
13408;SDS011;6775;49.574;11.170;2023-09-12T00:46:43;12.70;;;11.50;;
13408;SDS011;6775;49.574;11.170;2023-09-12T00:49:14;12.23;;;11.00;;
13408;SDS011;6775;49.574;11.170;2023-09-12T00:51:44;13.00;;;11.70;;
13408;SDS011;6775;49.574;11.170;2023-09-12T00:54:17;12.20;;;11.00;;
13408;SDS011;6775;49.574;11.170;2023-09-12T00:56:45;13.07;;;11.67;;
13408;SDS011;6775;49.574;11.170;2023-09-12T00:59:13;12.10;;;10.90;;
13408;SDS011;6775;49.574;11.170;2023-09-12T01:01:45;10.43;;;9.53;;
13408;SDS011;6775;49.574;11.170;2023-09-12T01:04:13;12.60;;;11.20;;
13408;SDS011;6775;49.574;11.170;2023-09-12T01:06:59;11.60;;;10.50;;
13408;SDS011;6775;49.574;11.170;2023-09-12T01:09:29;12.00;;;10.80;;
13408;SDS011;6775;49.574;11.170;2023-09-12T01:11:57;13.17;;;11.23;;
13408;SDS011;6775;49.574;11.170;2023-09-12T01:14:26;13.00;;;10.90;;
13408;SDS011;6775;49.574;11.170;2023-09-12T01:16:57;11.63;;;10.53;;
13408;SDS011;6775;49.574;11.170;2023-09-12T01:19:27;11.70;;;10.70;;
13408;SDS011;6775;49.574;11.170;2023-09-12T01:22:01;11.33;;;10.17;;
13408;SDS011;6775;49.574;11.170;2023-09-12T01:28:09;10.50;;;9.50;;
13408;SDS011;6775;49.574;11.170;2023-09-12T01:30:41;12.30;;;11.10;;
13408;SDS011;6775;49.574;11.170;2023-09-12T01:33:12;11.07;;;9.93;;
13408;SDS011;6775;49.574;11.170;2023-09-12T01:35:41;11.27;;;10.17;;
13408;SDS011;6775;49.574;11.170;2023-09-12T01:38:09;13.63;;;12.17;;
13408;SDS011;6775;49.574;11.170;2023-09-12T01:40:39;12.77;;;11.37;;
13408;SDS011;6775;49.574;11.170;2023-09-12T01:43:16;12.27;;;10.97;;
13408;SDS011;6775;49.574;11.170;2023-09-12T01:45:48;14.80;;;13.10;;
13408;SDS011;6775;49.574;11.170;2023-09-12T01:48:22;16.40;;;12.97;;
13408;SDS011;6775;49.574;11.170;2023-09-12T01:50:59;14.43;;;12.30;;
13408;SDS011;6775;49.574;11.170;2023-09-12T01:53:29;13.57;;;12.03;;
13408;SDS011;6775;49.574;11.170;2023-09-12T01:55:59;14.93;;;12.17;;
13408;SDS011;6775;49.574;11.170;2023-09-12T01:58:29;13.27;;;11.97;;
13408;SDS011;6775;49.574;11.170;2023-09-12T02:00:58;13.17;;;11.97;;
13408;SDS011;6775;49.574;11.170;2023-09-12T02:03:26;13.90;;;12.50;;
13408;SDS011;6775;49.574;11.170;2023-09-12T02:05:54;13.07;;;11.77;;
13408;SDS011;6775;49.574;11.170;2023-09-12T02:08:23;13.30;;;11.87;;
13408;SDS011;6775;49.574;11.170;2023-09-12T02:10:51;12.83;;;11.43;;
13408;SDS011;6775;49.574;11.170;2023-09-12T02:13:18;16.40;;;13.13;;
13408;SDS011;6775;49.574;11.170;2023-09-12T02:15:48;14.90;;;12.47;;
13408;SDS011;6775;49.574;11.170;2023-09-12T02:18:16;13.97;;;12.47;;
13408;SDS011;6775;49.574;11.170;2023-09-12T02:20:44;15.40;;;12.83;;
13408;SDS011;6775;49.574;11.170;2023-09-12T02:23:14;14.03;;;12.27;;
13408;SDS011;6775;49.574;11.170;2023-09-12T02:25:42;14.67;;;12.80;;
13408;SDS011;6775;49.574;11.170;2023-09-12T02:28:10;13.47;;;12.07;;
13408;SDS011;6775;49.574;11.170;2023-09-12T02:30:38;13.03;;;11.77;;
13408;SDS011;6775;49.574;11.170;2023-09-12T02:33:08;13.80;;;12.10;;
13408;SDS011;6775;49.574;11.170;2023-09-12T02:35:46;11.87;;;10.70;;
13408;SDS011;6775;49.574;11.170;2023-09-12T02:38:14;13.57;;;12.27;;
13408;SDS011;6775;49.574;11.170;2023-09-12T02:40:42;13.60;;;12.20;;
13408;SDS011;6775;49.574;11.170;2023-09-12T02:43:10;12.73;;;10.93;;
13408;SDS011;6775;49.574;11.170;2023-09-12T02:45:38;11.40;;;10.20;;
13408;SDS011;6775;49.574;11.170;2023-09-12T02:48:06;12.03;;;10.83;;
13408;SDS011;6775;49.574;11.170;2023-09-12T02:50:35;11.40;;;10.20;;
13408;SDS011;6775;49.574;11.170;2023-09-12T02:53:03;12.10;;;10.67;;
13408;SDS011;6775;49.574;11.170;2023-09-12T02:55:32;11.70;;;10.50;;
13408;SDS011;6775;49.574;11.170;2023-09-12T02:58:00;12.37;;;11.03;;
13408;SDS011;6775;49.574;11.170;2023-09-12T03:00:29;11.70;;;10.50;;
13408;SDS011;6775;49.574;11.170;2023-09-12T03:02:57;10.90;;;9.80;;
13408;SDS011;6775;49.574;11.170;2023-09-12T03:05:25;10.97;;;9.80;;
13408;SDS011;6775;49.574;11.170;2023-09-12T03:07:54;14.07;;;10.77;;
13408;SDS011;6775;49.574;11.170;2023-09-12T03:10:22;10.57;;;9.47;;
13408;SDS011;6775;49.574;11.170;2023-09-12T03:12:50;11.87;;;10.67;;
13408;SDS011;6775;49.574;11.170;2023-09-12T03:15:18;11.27;;;10.13;;
13408;SDS011;6775;49.574;11.170;2023-09-12T03:17:46;11.70;;;10.50;;
13408;SDS011;6775;49.574;11.170;2023-09-12T03:20:14;11.27;;;10.17;;
13408;SDS011;6775;49.574;11.170;2023-09-12T03:22:42;10.70;;;9.70;;
13408;SDS011;6775;49.574;11.170;2023-09-12T03:25:12;11.23;;;9.97;;
13408;SDS011;6775;49.574;11.170;2023-09-12T03:27:40;10.33;;;9.30;;
13408;SDS011;6775;49.574;11.170;2023-09-12T03:30:09;10.83;;;9.73;;
13408;SDS011;6775;49.574;11.170;2023-09-12T03:32:38;11.33;;;10.13;;
13408;SDS011;6775;49.574;11.170;2023-09-12T03:35:06;11.27;;;10.17;;
13408;SDS011;6775;49.574;11.170;2023-09-12T03:37:35;10.83;;;9.73;;
13408;SDS011;6775;49.574;11.170;2023-09-12T03:40:07;11.20;;;10.10;;
13408;SDS011;6775;49.574;11.170;2023-09-12T03:42:38;11.10;;;10.00;;
13408;SDS011;6775;49.574;11.170;2023-09-12T03:45:08;9.53;;;8.63;;
13408;SDS011;6775;49.574;11.170;2023-09-12T03:47:37;8.43;;;7.63;;
13408;SDS011;6775;49.574;11.170;2023-09-12T03:50:06;8.10;;;7.40;;
13408;SDS011;6775;49.574;11.170;2023-09-12T03:52:34;9.93;;;8.97;;
13408;SDS011;6775;49.574;11.170;2023-09-12T03:55:03;8.93;;;8.10;;
13408;SDS011;6775;49.574;11.170;2023-09-12T03:57:31;10.50;;;9.50;;
13408;SDS011;6775;49.574;11.170;2023-09-12T04:00:01;11.40;;;10.33;;
13408;SDS011;6775;49.574;11.170;2023-09-12T04:02:32;10.87;;;9.87;;
13408;SDS011;6775;49.574;11.170;2023-09-12T04:05:00;10.43;;;9.33;;
13408;SDS011;6775;49.574;11.170;2023-09-12T04:07:28;10.80;;;9.70;;
13408;SDS011;6775;49.574;11.170;2023-09-12T04:09:56;12.23;;;10.40;;
13408;SDS011;6775;49.574;11.170;2023-09-12T04:12:24;10.87;;;9.83;;
13408;SDS011;6775;49.574;11.170;2023-09-12T04:14:52;11.07;;;10.00;;
13408;SDS011;6775;49.574;11.170;2023-09-12T04:17:22;11.13;;;8.90;;
13408;SDS011;6775;49.574;11.170;2023-09-12T04:19:50;9.40;;;8.47;;
13408;SDS011;6775;49.574;11.170;2023-09-12T04:22:18;9.20;;;8.30;;
13408;SDS011;6775;49.574;11.170;2023-09-12T04:24:49;9.83;;;7.77;;
13408;SDS011;6775;49.574;11.170;2023-09-12T04:27:17;10.90;;;9.80;;
13408;SDS011;6775;49.574;11.170;2023-09-12T04:29:45;12.23;;;10.53;;
13408;SDS011;6775;49.574;11.170;2023-09-12T04:32:13;11.40;;;10.20;;
13408;SDS011;6775;49.574;11.170;2023-09-12T04:34:44;12.43;;;9.73;;
13408;SDS011;6775;49.574;11.170;2023-09-12T04:37:12;10.37;;;9.37;;
13408;SDS011;6775;49.574;11.170;2023-09-12T04:39:40;10.63;;;9.50;;
13408;SDS011;6775;49.574;11.170;2023-09-12T04:42:08;11.47;;;10.37;;
13408;SDS011;6775;49.574;11.170;2023-09-12T04:44:36;11.37;;;9.93;;
13408;SDS011;6775;49.574;11.170;2023-09-12T04:47:07;10.03;;;9.00;;
13408;SDS011;6775;49.574;11.170;2023-09-12T04:49:36;11.13;;;9.70;;
13408;SDS011;6775;49.574;11.170;2023-09-12T04:52:06;10.67;;;9.57;;
13408;SDS011;6775;49.574;11.170;2023-09-12T04:54:34;11.50;;;10.23;;
13408;SDS011;6775;49.574;11.170;2023-09-12T04:57:03;10.47;;;9.37;;
13408;SDS011;6775;49.574;11.170;2023-09-12T04:59:31;9.23;;;8.43;;
13408;SDS011;6775;49.574;11.170;2023-09-12T05:01:59;11.40;;;9.90;;
13408;SDS011;6775;49.574;11.170;2023-09-12T05:04:29;11.77;;;10.20;;
13408;SDS011;6775;49.574;11.170;2023-09-12T05:06:58;12.03;;;10.50;;
13408;SDS011;6775;49.574;11.170;2023-09-12T05:09:27;12.47;;;10.23;;
13408;SDS011;6775;49.574;11.170;2023-09-12T05:11:55;10.37;;;9.37;;
13408;SDS011;6775;49.574;11.170;2023-09-12T05:14:23;12.43;;;9.87;;
13408;SDS011;6775;49.574;11.170;2023-09-12T05:16:51;9.97;;;8.83;;
13408;SDS011;6775;49.574;11.170;2023-09-12T05:19:19;10.07;;;9.07;;
13408;SDS011;6775;49.574;11.170;2023-09-12T05:21:47;11.20;;;8.97;;
13408;SDS011;6775;49.574;11.170;2023-09-12T05:24:15;10.07;;;9.10;;
13408;SDS011;6775;49.574;11.170;2023-09-12T05:26:45;10.00;;;9.00;;
13408;SDS011;6775;49.574;11.170;2023-09-12T05:29:14;8.70;;;7.87;;
13408;SDS011;6775;49.574;11.170;2023-09-12T05:31:41;9.60;;;8.70;;
13408;SDS011;6775;49.574;11.170;2023-09-12T05:34:10;9.47;;;8.53;;
13408;SDS011;6775;49.574;11.170;2023-09-12T05:36:38;10.17;;;8.63;;
13408;SDS011;6775;49.574;11.170;2023-09-12T05:39:06;9.33;;;8.43;;
13408;SDS011;6775;49.574;11.170;2023-09-12T05:41:34;10.83;;;9.33;;
13408;SDS011;6775;49.574;11.170;2023-09-12T05:44:03;9.20;;;8.30;;
13408;SDS011;6775;49.574;11.170;2023-09-12T05:46:31;8.80;;;7.90;;
13408;SDS011;6775;49.574;11.170;2023-09-12T05:48:59;9.27;;;8.27;;
13408;SDS011;6775;49.574;11.170;2023-09-12T05:51:28;8.47;;;7.67;;
13408;SDS011;6775;49.574;11.170;2023-09-12T05:53:56;8.30;;;7.43;;
13408;SDS011;6775;49.574;11.170;2023-09-12T05:56:24;9.47;;;8.53;;
13408;SDS011;6775;49.574;11.170;2023-09-12T05:58:52;10.40;;;9.40;;
13408;SDS011;6775;49.574;11.170;2023-09-12T06:01:21;9.43;;;8.53;;
13408;SDS011;6775;49.574;11.170;2023-09-12T06:03:50;9.27;;;8.33;;
13408;SDS011;6775;49.574;11.170;2023-09-12T06:06:18;9.30;;;8.40;;
13408;SDS011;6775;49.574;11.170;2023-09-12T06:08:46;10.57;;;8.93;;
13408;SDS011;6775;49.574;11.170;2023-09-12T06:11:14;8.53;;;7.60;;
13408;SDS011;6775;49.574;11.170;2023-09-12T06:13:42;7.37;;;6.67;;
13408;SDS011;6775;49.574;11.170;2023-09-12T06:16:10;8.97;;;8.10;;
13408;SDS011;6775;49.574;11.170;2023-09-12T06:18:39;7.73;;;7.00;;
13408;SDS011;6775;49.574;11.170;2023-09-12T06:21:08;8.43;;;7.63;;
13408;SDS011;6775;49.574;11.170;2023-09-12T06:23:36;7.77;;;7.07;;
13408;SDS011;6775;49.574;11.170;2023-09-12T06:26:04;8.00;;;7.20;;
13408;SDS011;6775;49.574;11.170;2023-09-12T06:28:32;8.70;;;7.70;;
13408;SDS011;6775;49.574;11.170;2023-09-12T06:31:00;7.40;;;6.70;;
13408;SDS011;6775;49.574;11.170;2023-09-12T06:33:28;7.60;;;6.90;;
13408;SDS011;6775;49.574;11.170;2023-09-12T06:35:57;7.20;;;6.53;;
13408;SDS011;6775;49.574;11.170;2023-09-12T06:38:26;8.10;;;7.40;;
13408;SDS011;6775;49.574;11.170;2023-09-12T06:40:54;7.57;;;6.87;;
13408;SDS011;6775;49.574;11.170;2023-09-12T06:43:22;8.00;;;7.17;;
13408;SDS011;6775;49.574;11.170;2023-09-12T06:45:50;8.13;;;7.33;;
13408;SDS011;6775;49.574;11.170;2023-09-12T06:48:18;8.07;;;7.27;;
13408;SDS011;6775;49.574;11.170;2023-09-12T06:50:46;8.20;;;7.50;;
13408;SDS011;6775;49.574;11.170;2023-09-12T06:53:20;9.47;;;8.57;;
13408;SDS011;6775;49.574;11.170;2023-09-12T06:55:48;9.50;;;8.60;;
13408;SDS011;6775;49.574;11.170;2023-09-12T06:58:16;8.27;;;7.57;;
13408;SDS011;6775;49.574;11.170;2023-09-12T07:00:44;7.80;;;7.10;;
13408;SDS011;6775;49.574;11.170;2023-09-12T07:03:12;8.13;;;7.40;;
13408;SDS011;6775;49.574;11.170;2023-09-12T07:05:42;7.30;;;6.60;;
13408;SDS011;6775;49.574;11.170;2023-09-12T07:08:11;7.10;;;6.50;;
13408;SDS011;6775;49.574;11.170;2023-09-12T07:10:44;7.27;;;6.57;;
13408;SDS011;6775;49.574;11.170;2023-09-12T07:13:13;6.63;;;6.00;;
13408;SDS011;6775;49.574;11.170;2023-09-12T07:15:41;8.03;;;7.23;;
13408;SDS011;6775;49.574;11.170;2023-09-12T07:18:09;8.47;;;7.77;;
13408;SDS011;6775;49.574;11.170;2023-09-12T07:20:37;8.23;;;7.47;;
13408;SDS011;6775;49.574;11.170;2023-09-12T07:23:05;7.20;;;6.60;;
13408;SDS011;6775;49.574;11.170;2023-09-12T07:25:35;7.37;;;6.67;;
13408;SDS011;6775;49.574;11.170;2023-09-12T07:28:08;7.43;;;6.73;;
13408;SDS011;6775;49.574;11.170;2023-09-12T07:30:36;6.73;;;6.23;;
13408;SDS011;6775;49.574;11.170;2023-09-12T07:33:05;7.23;;;6.53;;
13408;SDS011;6775;49.574;11.170;2023-09-12T07:35:33;7.47;;;6.77;;
13408;SDS011;6775;49.574;11.170;2023-09-12T07:38:01;7.77;;;7.07;;
13408;SDS011;6775;49.574;11.170;2023-09-12T07:40:29;6.77;;;6.23;;
13408;SDS011;6775;49.574;11.170;2023-09-12T07:42:57;6.90;;;6.30;;
13408;SDS011;6775;49.574;11.170;2023-09-12T07:45:26;6.53;;;6.00;;
13408;SDS011;6775;49.574;11.170;2023-09-12T07:47:55;6.40;;;5.80;;
13408;SDS011;6775;49.574;11.170;2023-09-12T07:50:24;7.00;;;6.37;;
13408;SDS011;6775;49.574;11.170;2023-09-12T07:52:51;7.00;;;6.40;;
13408;SDS011;6775;49.574;11.170;2023-09-12T07:55:22;6.80;;;6.20;;
13408;SDS011;6775;49.574;11.170;2023-09-12T07:57:50;8.97;;;8.10;;
13408;SDS011;6775;49.574;11.170;2023-09-12T08:00:19;6.87;;;6.27;;
13408;SDS011;6775;49.574;11.170;2023-09-12T08:02:48;7.53;;;6.67;;
13408;SDS011;6775;49.574;11.170;2023-09-12T08:05:17;7.27;;;6.67;;
13408;SDS011;6775;49.574;11.170;2023-09-12T08:07:45;6.57;;;6.07;;
13408;SDS011;6775;49.574;11.170;2023-09-12T08:10:13;6.43;;;5.83;;
13408;SDS011;6775;49.574;11.170;2023-09-12T08:12:41;7.13;;;6.53;;
13408;SDS011;6775;49.574;11.170;2023-09-12T08:15:09;7.87;;;7.17;;
13408;SDS011;6775;49.574;11.170;2023-09-12T08:17:38;6.80;;;6.20;;
13408;SDS011;6775;49.574;11.170;2023-09-12T08:20:08;7.60;;;6.93;;
13408;SDS011;6775;49.574;11.170;2023-09-12T08:22:37;7.10;;;6.50;;
13408;SDS011;6775;49.574;11.170;2023-09-12T08:25:05;6.47;;;5.97;;
13408;SDS011;6775;49.574;11.170;2023-09-12T08:27:34;8.70;;;7.90;;
13408;SDS011;6775;49.574;11.170;2023-09-12T08:30:02;8.20;;;7.40;;
13408;SDS011;6775;49.574;11.170;2023-09-12T08:32:31;8.87;;;7.73;;
13408;SDS011;6775;49.574;11.170;2023-09-12T08:34:59;7.93;;;7.13;;
13408;SDS011;6775;49.574;11.170;2023-09-12T08:37:30;8.00;;;7.30;;
13408;SDS011;6775;49.574;11.170;2023-09-12T08:39:58;7.40;;;6.70;;
13408;SDS011;6775;49.574;11.170;2023-09-12T08:42:26;7.73;;;7.03;;
13408;SDS011;6775;49.574;11.170;2023-09-12T08:44:55;8.60;;;7.77;;
13408;SDS011;6775;49.574;11.170;2023-09-12T08:47:23;8.43;;;7.63;;
13408;SDS011;6775;49.574;11.170;2023-09-12T08:49:54;8.40;;;7.60;;
13408;SDS011;6775;49.574;11.170;2023-09-12T08:52:23;8.53;;;7.73;;
13408;SDS011;6775;49.574;11.170;2023-09-12T08:54:52;8.10;;;7.40;;
13408;SDS011;6775;49.574;11.170;2023-09-12T08:57:20;8.43;;;7.50;;
13408;SDS011;6775;49.574;11.170;2023-09-12T08:59:49;8.20;;;7.40;;
13408;SDS011;6775;49.574;11.170;2023-09-12T09:02:19;8.80;;;8.00;;
13408;SDS011;6775;49.574;11.170;2023-09-12T09:04:48;9.27;;;8.37;;
13408;SDS011;6775;49.574;11.170;2023-09-12T09:07:18;8.77;;;7.97;;
13408;SDS011;6775;49.574;11.170;2023-09-12T09:09:48;8.80;;;7.93;;
13408;SDS011;6775;49.574;11.170;2023-09-12T09:12:21;9.37;;;7.57;;
13408;SDS011;6775;49.574;11.170;2023-09-12T09:14:49;8.70;;;8.00;;
13408;SDS011;6775;49.574;11.170;2023-09-12T09:17:18;8.67;;;7.87;;
13408;SDS011;6775;49.574;11.170;2023-09-12T09:20:00;8.60;;;7.90;;
13408;SDS011;6775;49.574;11.170;2023-09-12T09:22:30;8.50;;;7.70;;
13408;SDS011;6775;49.574;11.170;2023-09-12T09:25:09;7.50;;;6.90;;
13408;SDS011;6775;49.574;11.170;2023-09-12T09:27:40;10.57;;;8.07;;
13408;SDS011;6775;49.574;11.170;2023-09-12T09:30:09;8.37;;;7.67;;
13408;SDS011;6775;49.574;11.170;2023-09-12T09:32:39;8.07;;;7.27;;
13408;SDS011;6775;49.574;11.170;2023-09-12T09:35:07;8.00;;;7.20;;
13408;SDS011;6775;49.574;11.170;2023-09-12T09:37:37;8.40;;;7.60;;
13408;SDS011;6775;49.574;11.170;2023-09-12T09:40:06;7.83;;;7.23;;
13408;SDS011;6775;49.574;11.170;2023-09-12T09:42:37;8.03;;;7.23;;
13408;SDS011;6775;49.574;11.170;2023-09-12T09:45:07;8.63;;;7.50;;
13408;SDS011;6775;49.574;11.170;2023-09-12T09:47:36;9.47;;;7.13;;
13408;SDS011;6775;49.574;11.170;2023-09-12T09:50:04;8.03;;;7.33;;
13408;SDS011;6775;49.574;11.170;2023-09-12T09:52:33;7.90;;;7.10;;
13408;SDS011;6775;49.574;11.170;2023-09-12T09:55:01;8.60;;;6.90;;
13408;SDS011;6775;49.574;11.170;2023-09-12T09:57:30;8.33;;;7.53;;
13408;SDS011;6775;49.574;11.170;2023-09-12T10:00:04;7.77;;;7.10;;
13408;SDS011;6775;49.574;11.170;2023-09-12T10:02:41;7.97;;;7.17;;
13408;SDS011;6775;49.574;11.170;2023-09-12T10:05:11;7.50;;;6.80;;
13408;SDS011;6775;49.574;11.170;2023-09-12T10:07:43;8.30;;;7.50;;
13408;SDS011;6775;49.574;11.170;2023-09-12T10:10:15;7.90;;;7.17;;
13408;SDS011;6775;49.574;11.170;2023-09-12T10:12:48;7.97;;;7.07;;
13408;SDS011;6775;49.574;11.170;2023-09-12T10:15:23;8.30;;;7.50;;
13408;SDS011;6775;49.574;11.170;2023-09-12T10:17:58;7.53;;;6.93;;
13408;SDS011;6775;49.574;11.170;2023-09-12T10:20:41;7.90;;;7.10;;
13408;SDS011;6775;49.574;11.170;2023-09-12T10:23:20;7.43;;;6.73;;
13408;SDS011;6775;49.574;11.170;2023-09-12T10:25:54;7.00;;;6.30;;
13408;SDS011;6775;49.574;11.170;2023-09-12T10:28:25;8.20;;;7.40;;
13408;SDS011;6775;49.574;11.170;2023-09-12T10:30:56;7.97;;;7.23;;
13408;SDS011;6775;49.574;11.170;2023-09-12T10:33:28;7.53;;;6.83;;
13408;SDS011;6775;49.574;11.170;2023-09-12T10:35:58;7.30;;;6.70;;
13408;SDS011;6775;49.574;11.170;2023-09-12T10:38:27;7.33;;;6.63;;
13408;SDS011;6775;49.574;11.170;2023-09-12T10:41:00;7.13;;;6.50;;
13408;SDS011;6775;49.574;11.170;2023-09-12T10:43:31;7.53;;;6.93;;
13408;SDS011;6775;49.574;11.170;2023-09-12T10:46:03;7.07;;;6.47;;
13408;SDS011;6775;49.574;11.170;2023-09-12T10:48:33;7.60;;;6.70;;
13408;SDS011;6775;49.574;11.170;2023-09-12T10:51:03;7.60;;;6.90;;
13408;SDS011;6775;49.574;11.170;2023-09-12T10:53:32;11.13;;;6.70;;
13408;SDS011;6775;49.574;11.170;2023-09-12T10:56:01;7.23;;;6.60;;
13408;SDS011;6775;49.574;11.170;2023-09-12T11:01:40;7.07;;;6.37;;
13408;SDS011;6775;49.574;11.170;2023-09-12T11:04:30;6.20;;;5.73;;
13408;SDS011;6775;49.574;11.170;2023-09-12T11:10:16;8.33;;;7.50;;
13408;SDS011;6775;49.574;11.170;2023-09-12T11:12:49;7.40;;;6.60;;
13408;SDS011;6775;49.574;11.170;2023-09-12T11:15:19;8.27;;;7.07;;
13408;SDS011;6775;49.574;11.170;2023-09-12T11:17:59;8.13;;;7.33;;
13408;SDS011;6775;49.574;11.170;2023-09-12T11:20:49;8.40;;;6.93;;
13408;SDS011;6775;49.574;11.170;2023-09-12T11:23:29;8.40;;;7.00;;
13408;SDS011;6775;49.574;11.170;2023-09-12T11:26:04;11.83;;;7.00;;
13408;SDS011;6775;49.574;11.170;2023-09-12T11:28:33;7.53;;;6.83;;
13408;SDS011;6775;49.574;11.170;2023-09-12T11:31:01;7.57;;;6.73;;
13408;SDS011;6775;49.574;11.170;2023-09-12T11:33:32;7.47;;;6.77;;
13408;SDS011;6775;49.574;11.170;2023-09-12T11:36:01;8.60;;;7.43;;
13408;SDS011;6775;49.574;11.170;2023-09-12T11:38:37;8.77;;;7.43;;
13408;SDS011;6775;49.574;11.170;2023-09-12T11:41:05;8.07;;;7.37;;
13408;SDS011;6775;49.574;11.170;2023-09-12T11:43:33;7.73;;;6.90;;
13408;SDS011;6775;49.574;11.170;2023-09-12T11:46:06;9.03;;;7.13;;
13408;SDS011;6775;49.574;11.170;2023-09-12T11:48:37;7.70;;;6.90;;
13408;SDS011;6775;49.574;11.170;2023-09-12T11:51:07;6.63;;;6.13;;
13408;SDS011;6775;49.574;11.170;2023-09-12T11:53:35;6.97;;;6.37;;
13408;SDS011;6775;49.574;11.170;2023-09-12T11:56:03;6.87;;;6.27;;
13408;SDS011;6775;49.574;11.170;2023-09-12T11:58:32;9.27;;;6.87;;
13408;SDS011;6775;49.574;11.170;2023-09-12T12:01:01;7.23;;;6.60;;
13408;SDS011;6775;49.574;11.170;2023-09-12T12:03:29;7.47;;;6.73;;
13408;SDS011;6775;49.574;11.170;2023-09-12T12:05:59;7.87;;;6.87;;
13408;SDS011;6775;49.574;11.170;2023-09-12T12:08:27;10.47;;;7.67;;
13408;SDS011;6775;49.574;11.170;2023-09-12T12:10:58;9.83;;;7.20;;
13408;SDS011;6775;49.574;11.170;2023-09-12T12:13:27;8.27;;;7.37;;
13408;SDS011;6775;49.574;11.170;2023-09-12T12:15:56;7.57;;;6.90;;
13408;SDS011;6775;49.574;11.170;2023-09-12T12:18:24;6.87;;;6.27;;
13408;SDS011;6775;49.574;11.170;2023-09-12T12:20:53;6.83;;;6.20;;
13408;SDS011;6775;49.574;11.170;2023-09-12T12:23:23;6.63;;;6.03;;
13408;SDS011;6775;49.574;11.170;2023-09-12T12:25:51;7.67;;;6.97;;
13408;SDS011;6775;49.574;11.170;2023-09-12T12:28:19;7.27;;;6.57;;
13408;SDS011;6775;49.574;11.170;2023-09-12T12:30:49;11.97;;;6.83;;
13408;SDS011;6775;49.574;11.170;2023-09-12T12:33:20;7.00;;;6.40;;
13408;SDS011;6775;49.574;11.170;2023-09-12T12:36:08;7.43;;;6.23;;
13408;SDS011;6775;49.574;11.170;2023-09-12T12:38:38;9.87;;;6.50;;
13408;SDS011;6775;49.574;11.170;2023-09-12T12:41:22;8.80;;;6.53;;
13408;SDS011;6775;49.574;11.170;2023-09-12T12:43:56;6.67;;;5.83;;
13408;SDS011;6775;49.574;11.170;2023-09-12T12:46:29;6.40;;;5.80;;
13408;SDS011;6775;49.574;11.170;2023-09-12T12:48:57;7.77;;;6.43;;
13408;SDS011;6775;49.574;11.170;2023-09-12T12:51:25;8.33;;;6.20;;
13408;SDS011;6775;49.574;11.170;2023-09-12T12:54:03;7.87;;;6.60;;
13408;SDS011;6775;49.574;11.170;2023-09-12T12:56:32;8.17;;;6.60;;
13408;SDS011;6775;49.574;11.170;2023-09-12T12:59:01;8.83;;;6.70;;
13408;SDS011;6775;49.574;11.170;2023-09-12T13:01:35;7.30;;;6.60;;
13408;SDS011;6775;49.574;11.170;2023-09-12T13:04:05;7.73;;;6.93;;
13408;SDS011;6775;49.574;11.170;2023-09-12T13:06:34;6.40;;;5.80;;
13408;SDS011;6775;49.574;11.170;2023-09-12T13:09:05;6.57;;;6.03;;
13408;SDS011;6775;49.574;11.170;2023-09-12T13:11:34;6.80;;;6.07;;
13408;SDS011;6775;49.574;11.170;2023-09-12T13:14:03;6.50;;;5.90;;
13408;SDS011;6775;49.574;11.170;2023-09-12T13:16:36;6.77;;;6.07;;
13408;SDS011;6775;49.574;11.170;2023-09-12T13:19:06;8.80;;;6.67;;
13408;SDS011;6775;49.574;11.170;2023-09-12T13:21:34;7.03;;;6.33;;
13408;SDS011;6775;49.574;11.170;2023-09-12T13:24:03;7.53;;;6.83;;
13408;SDS011;6775;49.574;11.170;2023-09-12T13:26:33;6.87;;;6.27;;
13408;SDS011;6775;49.574;11.170;2023-09-12T13:29:01;10.83;;;6.50;;
13408;SDS011;6775;49.574;11.170;2023-09-12T13:31:29;7.33;;;6.20;;
13408;SDS011;6775;49.574;11.170;2023-09-12T13:33:57;9.53;;;6.70;;
13408;SDS011;6775;49.574;11.170;2023-09-12T13:36:26;7.67;;;6.97;;
13408;SDS011;6775;49.574;11.170;2023-09-12T13:38:54;7.43;;;6.73;;
13408;SDS011;6775;49.574;11.170;2023-09-12T13:41:23;7.73;;;6.90;;
13408;SDS011;6775;49.574;11.170;2023-09-12T13:43:52;7.30;;;6.60;;
13408;SDS011;6775;49.574;11.170;2023-09-12T13:46:20;8.00;;;6.40;;
13408;SDS011;6775;49.574;11.170;2023-09-12T13:48:48;7.10;;;6.40;;
13408;SDS011;6775;49.574;11.170;2023-09-12T13:51:16;8.07;;;6.40;;
13408;SDS011;6775;49.574;11.170;2023-09-12T13:53:44;6.57;;;5.97;;
13408;SDS011;6775;49.574;11.170;2023-09-12T13:56:12;7.30;;;6.60;;
13408;SDS011;6775;49.574;11.170;2023-09-12T13:58:47;7.20;;;6.60;;
13408;SDS011;6775;49.574;11.170;2023-09-12T14:01:16;6.83;;;6.27;;
13408;SDS011;6775;49.574;11.170;2023-09-12T14:04:00;7.23;;;6.57;;
13408;SDS011;6775;49.574;11.170;2023-09-12T14:06:29;6.70;;;6.00;;
13408;SDS011;6775;49.574;11.170;2023-09-12T14:08:58;6.30;;;5.70;;
13408;SDS011;6775;49.574;11.170;2023-09-12T14:11:27;6.60;;;6.00;;
13408;SDS011;6775;49.574;11.170;2023-09-12T14:14:03;6.30;;;5.70;;
13408;SDS011;6775;49.574;11.170;2023-09-12T14:16:34;6.60;;;5.97;;
13408;SDS011;6775;49.574;11.170;2023-09-12T14:19:03;7.70;;;6.23;;
13408;SDS011;6775;49.574;11.170;2023-09-12T14:21:32;7.33;;;6.73;;
13408;SDS011;6775;49.574;11.170;2023-09-12T14:24:01;6.50;;;5.90;;
13408;SDS011;6775;49.574;11.170;2023-09-12T14:26:31;6.23;;;5.63;;
13408;SDS011;6775;49.574;11.170;2023-09-12T14:28:59;6.27;;;5.57;;
13408;SDS011;6775;49.574;11.170;2023-09-12T14:31:29;5.60;;;5.07;;
13408;SDS011;6775;49.574;11.170;2023-09-12T14:33:57;5.60;;;5.20;;
13408;SDS011;6775;49.574;11.170;2023-09-12T14:36:26;7.20;;;6.50;;
13408;SDS011;6775;49.574;11.170;2023-09-12T14:38:54;5.77;;;5.27;;
13408;SDS011;6775;49.574;11.170;2023-09-12T14:41:22;9.50;;;6.63;;
13408;SDS011;6775;49.574;11.170;2023-09-12T14:43:50;8.30;;;7.07;;
13408;SDS011;6775;49.574;11.170;2023-09-12T14:46:18;7.60;;;6.90;;
13408;SDS011;6775;49.574;11.170;2023-09-12T14:48:47;7.17;;;6.47;;
13408;SDS011;6775;49.574;11.170;2023-09-12T14:51:27;7.00;;;6.40;;
13408;SDS011;6775;49.574;11.170;2023-09-12T14:53:58;7.00;;;6.27;;
13408;SDS011;6775;49.574;11.170;2023-09-12T14:56:26;7.00;;;6.40;;
13408;SDS011;6775;49.574;11.170;2023-09-12T14:58:54;7.07;;;6.37;;
13408;SDS011;6775;49.574;11.170;2023-09-12T15:01:23;8.50;;;6.60;;
13408;SDS011;6775;49.574;11.170;2023-09-12T15:03:53;7.30;;;6.60;;
13408;SDS011;6775;49.574;11.170;2023-09-12T15:06:21;6.80;;;6.20;;